Time;durP1;ratioP1;P1;durP2;ratioP2;P2;SDS_P1;SDS_P2;PMS_P1;PMS_P2;Temp;Humidity;BMP_temperature;BMP_pressure;BME280_temperature;BME280_humidity;BME280_pressure;Samples;Min_cycle;Max_cycle;Signal;HPM_P1;HPM_P2
2023/08/27 00:00:55;;;;;;;5.65;1.40;;;;;;;;;;6178771;23;20020;-41
2023/08/27 00:03:23;;;;;;;4.95;1.15;;;;;;;;;;6189519;23;20470;-41
2023/08/27 00:05:51;;;;;;;6.05;1.35;;;;;;;;;;6186157;23;20958;-42
2023/08/27 00:08:19;;;;;;;4.87;1.53;;;;;;;;;;6184456;23;20075;-43
2023/08/27 00:10:46;;;;;;;5.28;1.73;;;;;;;;;;6184260;23;20013;-42
2023/08/27 00:13:15;;;;;;;5.10;1.58;;;;;;;;;;6187222;23;20024;-41
2023/08/27 00:15:46;;;;;;;4.38;1.45;;;;;;;;;;6178848;23;20013;-41
2023/08/27 00:18:14;;;;;;;5.00;1.65;;;;;;;;;;6191200;23;20071;-41
2023/08/27 00:20:42;;;;;;;5.60;1.60;;;;;;;;;;6182239;23;20039;-42
2023/08/27 00:23:11;;;;;;;5.78;1.70;;;;;;;;;;6193023;23;20024;-42
2023/08/27 00:25:39;;;;;;;6.00;1.80;;;;;;;;;;6173163;23;20016;-41
2023/08/27 00:28:09;;;;;;;6.45;1.80;;;;;;;;;;6191188;23;20023;-42
2023/08/27 00:30:38;;;;;;;5.25;1.70;;;;;;;;;;6187589;23;20028;-41
2023/08/27 00:33:06;;;;;;;6.17;1.83;;;;;;;;;;6183320;23;20012;-43
2023/08/27 00:35:34;;;;;;;5.35;1.52;;;;;;;;;;6187726;23;20043;-42
2023/08/27 00:38:02;;;;;;;5.75;1.70;;;;;;;;;;6173468;23;20448;-41
2023/08/27 00:40:30;;;;;;;4.85;1.83;;;;;;;;;;6192640;23;20043;-41
2023/08/27 00:42:58;;;;;;;6.15;1.90;;;;;;;;;;6175131;23;20542;-42
2023/08/27 00:45:26;;;;;;;6.07;1.83;;;;;;;;;;6190222;23;20047;-44
2023/08/27 00:47:56;;;;;;;7.80;2.30;;;;;;;;;;6177824;23;20283;-43
2023/08/27 00:50:25;;;;;;;9.60;1.77;;;;;;;;;;6186942;23;20040;-44
2023/08/27 00:52:53;;;;;;;7.50;2.08;;;;;;;;;;6172239;23;20020;-44
2023/08/27 00:55:21;;;;;;;7.20;1.85;;;;;;;;;;6190549;23;20013;-41
2023/08/27 00:57:51;;;;;;;5.73;1.93;;;;;;;;;;6177929;23;20017;-42
2023/08/27 01:00:20;;;;;;;7.13;1.75;;;;;;;;;;6190455;23;20021;-43
2023/08/27 01:02:48;;;;;;;5.10;1.70;;;;;;;;;;6162043;23;20021;-42
2023/08/27 01:05:20;;;;;;;5.95;1.70;;;;;;;;;;6187942;23;20336;-41
2023/08/27 01:07:51;;;;;;;6.63;1.80;;;;;;;;;;6189482;23;20063;-42
2023/08/27 01:10:31;;;;;;;6.60;1.93;;;;;;;;;;6190301;23;20027;-42
2023/08/27 01:13:01;;;;;;;5.25;1.77;;;;;;;;;;6184717;23;20413;-41
2023/08/27 01:15:30;;;;;;;5.95;1.50;;;;;;;;;;6181402;23;20040;-43
2023/08/27 01:18:03;;;;;;;5.30;1.90;;;;;;;;;;6183869;23;20036;-41
2023/08/27 01:20:32;;;;;;;5.40;1.80;;;;;;;;;;6174485;23;20221;-41
2023/08/27 01:23:01;;;;;;;7.97;1.70;;;;;;;;;;6192448;23;20021;-41
2023/08/27 01:25:35;;;;;;;5.35;1.67;;;;;;;;;;6183872;23;20021;-44
2023/08/27 01:28:07;;;;;;;5.25;2.03;;;;;;;;;;6188344;23;20104;-42
2023/08/27 01:30:40;;;;;;;5.45;1.75;;;;;;;;;;6171733;23;20522;-41
2023/08/27 01:33:11;;;;;;;5.32;1.85;;;;;;;;;;6182295;23;20020;-41
2023/08/27 01:35:39;;;;;;;8.37;1.93;;;;;;;;;;6186966;23;20474;-44
2023/08/27 01:38:08;;;;;;;6.80;1.73;;;;;;;;;;6180187;23;20021;-41
2023/08/27 01:40:53;;;;;;;6.88;1.40;;;;;;;;;;6166347;23;20020;-41
2023/08/27 01:43:21;;;;;;;5.15;1.65;;;;;;;;;;6182159;23;20491;-41
2023/08/27 01:45:48;;;;;;;6.18;1.65;;;;;;;;;;6189047;23;20020;-41
2023/08/27 01:48:16;;;;;;;5.87;1.53;;;;;;;;;;6184319;23;20012;-41
2023/08/27 01:50:44;;;;;;;7.53;1.58;;;;;;;;;;6184622;23;20013;-41
2023/08/27 01:53:12;;;;;;;5.68;1.60;;;;;;;;;;6181764;23;20017;-44
2023/08/27 01:55:40;;;;;;;5.10;1.45;;;;;;;;;;6187040;23;20021;-41
2023/08/27 01:58:08;;;;;;;10.93;1.50;;;;;;;;;;6173881;23;20016;-43
2023/08/27 02:00:36;;;;;;;4.80;1.53;;;;;;;;;;6187791;23;20024;-41
2023/08/27 02:03:05;;;;;;;6.78;1.88;;;;;;;;;;6163469;23;20478;-44
2023/08/27 02:05:37;;;;;;;7.55;1.90;;;;;;;;;;6195309;23;20099;-43
2023/08/27 02:08:06;;;;;;;7.03;1.55;;;;;;;;;;6187027;23;20021;-41
2023/08/27 02:10:35;;;;;;;7.00;1.55;;;;;;;;;;6182788;23;20016;-43
2023/08/27 02:13:03;;;;;;;5.93;2.30;;;;;;;;;;6188937;23;20021;-42
2023/08/27 02:15:31;;;;;;;5.55;1.80;;;;;;;;;;6180142;23;20048;-41
2023/08/27 02:17:58;;;;;;;5.15;1.70;;;;;;;;;;6180643;23;20017;-43
2023/08/27 02:20:26;;;;;;;7.30;1.63;;;;;;;;;;6188289;23;20027;-43
2023/08/27 02:22:54;;;;;;;7.85;1.67;;;;;;;;;;6174150;23;20046;-42
2023/08/27 02:25:21;;;;;;;6.83;1.87;;;;;;;;;;6185399;23;20012;-41
2023/08/27 02:27:50;;;;;;;5.78;1.90;;;;;;;;;;6188794;23;20016;-41
2023/08/27 02:30:18;;;;;;;6.50;1.95;;;;;;;;;;6181744;23;20012;-41
2023/08/27 02:32:46;;;;;;;8.50;2.47;;;;;;;;;;6188977;23;20023;-41
2023/08/27 02:35:13;;;;;;;7.53;2.13;;;;;;;;;;6180871;23;20080;-41
2023/08/27 02:37:43;;;;;;;5.63;1.70;;;;;;;;;;6181430;23;20378;-42
2023/08/27 02:40:12;;;;;;;5.97;2.05;;;;;;;;;;6193976;23;20017;-41
2023/08/27 02:42:40;;;;;;;6.18;1.88;;;;;;;;;;6182383;23;20013;-41
2023/08/27 02:45:10;;;;;;;8.65;2.08;;;;;;;;;;6186625;23;20017;-42
2023/08/27 02:47:38;;;;;;;7.03;1.95;;;;;;;;;;6179809;23;20254;-41
2023/08/27 02:50:07;;;;;;;6.77;2.30;;;;;;;;;;6180651;23;20048;-41
2023/08/27 02:52:34;;;;;;;5.85;1.70;;;;;;;;;;6179130;23;20039;-41
2023/08/27 02:55:02;;;;;;;5.85;1.90;;;;;;;;;;6191521;23;20029;-41
2023/08/27 02:57:29;;;;;;;8.20;1.90;;;;;;;;;;6184848;23;20016;-41
2023/08/27 02:59:57;;;;;;;8.63;2.10;;;;;;;;;;6173432;23;20016;-41
2023/08/27 03:02:26;;;;;;;6.57;2.03;;;;;;;;;;6189194;23;20016;-41
2023/08/27 03:04:55;;;;;;;6.07;2.03;;;;;;;;;;6192665;23;20017;-42
2023/08/27 03:07:23;;;;;;;8.32;2.45;;;;;;;;;;6190120;23;20020;-41
2023/08/27 03:09:50;;;;;;;5.45;1.77;;;;;;;;;;6184508;23;20039;-41
2023/08/27 03:12:18;;;;;;;6.57;1.80;;;;;;;;;;6184300;23;20603;-42
2023/08/27 03:14:46;;;;;;;6.23;2.10;;;;;;;;;;6191289;23;20017;-41
2023/08/27 03:17:13;;;;;;;7.47;1.80;;;;;;;;;;6190557;23;20071;-41
2023/08/27 03:19:42;;;;;;;6.13;2.20;;;;;;;;;;6168368;23;20020;-44
2023/08/27 03:22:10;;;;;;;6.78;1.73;;;;;;;;;;6196193;23;20017;-41
2023/08/27 03:24:38;;;;;;;5.50;1.88;;;;;;;;;;6181812;23;20043;-41
2023/08/27 03:27:07;;;;;;;7.50;1.87;;;;;;;;;;6194561;23;20032;-42
2023/08/27 03:29:34;;;;;;;6.57;1.90;;;;;;;;;;6184525;23;20795;-42
2023/08/27 03:32:02;;;;;;;7.18;2.10;;;;;;;;;;6194127;23;20031;-41
2023/08/27 03:34:29;;;;;;;6.47;2.08;;;;;;;;;;6192663;23;20190;-42
2023/08/27 03:36:59;;;;;;;5.40;1.70;;;;;;;;;;6182693;23;20016;-41
2023/08/27 03:39:26;;;;;;;5.50;1.60;;;;;;;;;;6192370;23;20493;-41
2023/08/27 03:41:54;;;;;;;7.25;2.00;;;;;;;;;;6181321;23;20020;-41
2023/08/27 03:44:22;;;;;;;6.45;1.80;;;;;;;;;;6166736;23;20016;-41
2023/08/27 03:46:49;;;;;;;5.80;1.50;;;;;;;;;;6184529;23;20020;-41
2023/08/27 03:49:17;;;;;;;6.57;1.90;;;;;;;;;;6193527;23;20095;-42
2023/08/27 03:51:45;;;;;;;5.37;1.70;;;;;;;;;;6189966;23;20017;-42
2023/08/27 03:54:14;;;;;;;7.03;2.00;;;;;;;;;;6176947;23;20348;-41
2023/08/27 03:56:42;;;;;;;7.88;2.30;;;;;;;;;;6193522;23;20020;-41
2023/08/27 03:59:09;;;;;;;7.57;2.47;;;;;;;;;;6173168;23;20454;-41
2023/08/27 04:01:37;;;;;;;6.18;2.13;;;;;;;;;;6190527;23;20020;-41
2023/08/27 04:04:05;;;;;;;6.47;1.90;;;;;;;;;;6192804;23;20019;-41
2023/08/27 04:06:33;;;;;;;5.32;1.95;;;;;;;;;;6181066;23;20017;-41
2023/08/27 04:09:00;;;;;;;7.20;1.85;;;;;;;;;;6190779;23;20013;-42
2023/08/27 04:11:30;;;;;;;7.30;2.13;;;;;;;;;;6189054;23;20027;-42
2023/08/27 04:13:58;;;;;;;9.32;2.50;;;;;;;;;;6181964;23;20466;-41
2023/08/27 04:16:28;;;;;;;8.17;1.80;;;;;;;;;;6189966;23;20613;-42
2023/08/27 04:18:56;;;;;;;8.20;2.00;;;;;;;;;;6191255;23;20016;-41
2023/08/27 04:21:24;;;;;;;8.77;2.38;;;;;;;;;;6183229;23;20013;-42
2023/08/27 04:23:52;;;;;;;6.47;2.13;;;;;;;;;;6194806;23;20075;-43
2023/08/27 04:26:19;;;;;;;7.47;2.63;;;;;;;;;;6188615;23;20020;-41
2023/08/27 04:28:50;;;;;;;6.93;2.17;;;;;;;;;;6191528;23;20079;-42
2023/08/27 04:31:18;;;;;;;6.95;2.13;;;;;;;;;;6188605;23;20354;-41
2023/08/27 04:33:46;;;;;;;7.32;2.17;;;;;;;;;;6192619;23;20016;-41
2023/08/27 04:36:14;;;;;;;6.80;2.47;;;;;;;;;;6185255;23;20013;-41
2023/08/27 04:38:41;;;;;;;6.82;2.40;;;;;;;;;;6194076;23;20020;-41
2023/08/27 04:41:09;;;;;;;6.73;2.50;;;;;;;;;;6177384;23;20013;-41
2023/08/27 04:43:36;;;;;;;6.90;2.75;;;;;;;;;;6191895;23;20012;-41
2023/08/27 04:46:06;;;;;;;7.65;2.83;;;;;;;;;;6179578;23;20195;-41
2023/08/27 04:48:33;;;;;;;7.45;2.50;;;;;;;;;;6191575;23;20012;-42
2023/08/27 04:51:03;;;;;;;8.07;3.08;;;;;;;;;;6185539;23;20016;-42
2023/08/27 04:53:30;;;;;;;8.93;3.00;;;;;;;;;;6188728;23;20143;-41
2023/08/27 04:55:58;;;;;;;6.70;2.60;;;;;;;;;;6186594;23;20347;-42
2023/08/27 04:58:26;;;;;;;9.90;3.17;;;;;;;;;;6191144;23;20020;-41
2023/08/27 05:00:54;;;;;;;7.07;3.35;;;;;;;;;;6181645;23;20017;-41
2023/08/27 05:03:31;;;;;;;7.43;2.97;;;;;;;;;;6185332;23;20020;-43
2023/08/27 05:05:59;;;;;;;10.70;3.53;;;;;;;;;;6186267;23;20101;-41
2023/08/27 05:08:27;;;;;;;6.97;2.88;;;;;;;;;;6189346;23;20448;-42
2023/08/27 05:10:55;;;;;;;6.93;2.80;;;;;;;;;;6180594;23;20047;-42
2023/08/27 05:13:23;;;;;;;8.20;2.95;;;;;;;;;;6176906;23;20017;-42
2023/08/27 05:15:58;;;;;;;7.68;3.30;;;;;;;;;;6187684;23;20095;-43
2023/08/27 05:18:31;;;;;;;7.40;2.90;;;;;;;;;;6180203;23;20012;-43
2023/08/27 05:20:59;;;;;;;6.50;2.50;;;;;;;;;;6185844;23;20017;-42
2023/08/27 05:23:27;;;;;;;7.32;2.78;;;;;;;;;;6178114;23;20402;-42
2023/08/27 05:25:54;;;;;;;9.52;3.30;;;;;;;;;;6187675;23;20013;-43
2023/08/27 05:28:22;;;;;;;7.45;2.65;;;;;;;;;;6181692;23;20470;-41
2023/08/27 05:30:50;;;;;;;10.40;3.77;;;;;;;;;;6185810;23;20340;-41
2023/08/27 05:33:18;;;;;;;7.32;2.90;;;;;;;;;;6180992;23;20012;-41
2023/08/27 05:35:47;;;;;;;7.35;2.88;;;;;;;;;;6187706;23;20059;-42
2023/08/27 05:38:14;;;;;;;6.93;3.03;;;;;;;;;;6177470;23;20372;-43
2023/08/27 05:40:42;;;;;;;7.10;3.20;;;;;;;;;;6189811;23;20017;-41
2023/08/27 05:43:09;;;;;;;8.40;3.13;;;;;;;;;;6181670;23;20016;-41
2023/08/27 05:45:37;;;;;;;8.68;3.00;;;;;;;;;;6187493;23;20340;-41
2023/08/27 05:48:05;;;;;;;12.13;3.53;;;;;;;;;;6177439;23;20021;-42
2023/08/27 05:50:36;;;;;;;8.07;3.40;;;;;;;;;;6182243;23;20047;-41
2023/08/27 05:53:06;;;;;;;10.18;3.55;;;;;;;;;;6181301;23;20020;-42
2023/08/27 05:55:33;;;;;;;7.33;2.73;;;;;;;;;;6187837;23;20024;-42
2023/08/27 05:58:04;;;;;;;10.57;3.30;;;;;;;;;;6188877;23;20087;-41
2023/08/27 06:00:31;;;;;;;6.78;3.08;;;;;;;;;;6186289;23;20067;-41
2023/08/27 06:03:00;;;;;;;8.10;3.00;;;;;;;;;;6188065;23;20024;-44
2023/08/27 06:05:28;;;;;;;6.43;2.55;;;;;;;;;;6179341;23;20012;-42
2023/08/27 06:07:56;;;;;;;8.43;3.13;;;;;;;;;;6184553;23;20016;-41
2023/08/27 06:10:25;;;;;;;8.30;3.15;;;;;;;;;;6183432;23;20024;-41
2023/08/27 06:12:54;;;;;;;7.10;2.58;;;;;;;;;;6183872;23;20130;-41
2023/08/27 06:15:22;;;;;;;6.15;2.75;;;;;;;;;;6179798;23;20016;-41
2023/08/27 06:17:49;;;;;;;8.07;3.38;;;;;;;;;;6187029;23;20017;-42
2023/08/27 06:20:17;;;;;;;8.53;2.70;;;;;;;;;;6179324;23;20090;-41
2023/08/27 06:22:45;;;;;;;7.93;3.20;;;;;;;;;;6187343;23;20376;-42
2023/08/27 06:25:12;;;;;;;7.03;3.22;;;;;;;;;;6174764;23;20075;-41
2023/08/27 06:27:41;;;;;;;9.48;3.25;;;;;;;;;;6187441;23;20028;-41
2023/08/27 06:30:09;;;;;;;7.47;3.03;;;;;;;;;;6179283;23;20043;-41
2023/08/27 06:32:37;;;;;;;8.03;3.23;;;;;;;;;;6190100;23;20025;-41
2023/08/27 06:35:05;;;;;;;9.38;2.83;;;;;;;;;;6177394;23;20446;-42
2023/08/27 06:37:36;;;;;;;7.65;2.95;;;;;;;;;;6186148;23;20413;-42
2023/08/27 06:40:07;;;;;;;10.10;3.10;;;;;;;;;;6187113;23;20092;-42
2023/08/27 06:42:35;;;;;;;9.98;3.83;;;;;;;;;;6169913;23;20013;-43
2023/08/27 06:45:06;;;;;;;10.17;3.37;;;;;;;;;;6190162;23;20016;-41
2023/08/27 06:47:36;;;;;;;8.48;3.08;;;;;;;;;;6175050;23;20586;-42
2023/08/27 06:50:05;;;;;;;9.70;3.10;;;;;;;;;;6187903;23;20019;-42
2023/08/27 06:52:33;;;;;;;8.40;2.90;;;;;;;;;;6180085;23;20441;-42
2023/08/27 06:55:02;;;;;;;7.95;3.05;;;;;;;;;;6187235;23;20047;-43
2023/08/27 06:57:29;;;;;;;7.80;3.73;;;;;;;;;;6178363;23;20547;-41
2023/08/27 06:59:57;;;;;;;9.60;2.95;;;;;;;;;;6187545;23;20059;-42
2023/08/27 07:02:27;;;;;;;8.38;3.00;;;;;;;;;;6178138;23;20253;-43
2023/08/27 07:04:56;;;;;;;6.30;2.90;;;;;;;;;;6187251;23;20016;-42
2023/08/27 07:07:24;;;;;;;8.73;3.20;;;;;;;;;;6183067;23;20020;-42
2023/08/27 07:09:57;;;;;;;8.67;3.03;;;;;;;;;;6181012;23;20769;-42
2023/08/27 07:12:25;;;;;;;7.22;3.55;;;;;;;;;;6182640;23;20395;-42
2023/08/27 07:14:52;;;;;;;7.00;3.47;;;;;;;;;;6189735;23;20041;-42
2023/08/27 07:17:28;;;;;;;8.18;3.80;;;;;;;;;;6165542;23;20379;-42
2023/08/27 07:19:56;;;;;;;9.15;3.15;;;;;;;;;;6184446;23;20104;-42
2023/08/27 07:22:23;;;;;;;6.73;2.93;;;;;;;;;;6180847;23;20016;-41
2023/08/27 07:24:51;;;;;;;5.85;2.63;;;;;;;;;;6184866;23;20032;-41
2023/08/27 07:27:19;;;;;;;5.38;2.20;;;;;;;;;;6181571;23;20017;-41
2023/08/27 07:29:46;;;;;;;5.97;2.00;;;;;;;;;;6186657;23;20013;-42
2023/08/27 07:32:14;;;;;;;6.47;2.50;;;;;;;;;;6178701;23;20309;-41
2023/08/27 07:34:43;;;;;;;6.87;2.70;;;;;;;;;;6181346;23;20063;-44
2023/08/27 07:37:11;;;;;;;6.28;2.28;;;;;;;;;;6181230;23;20086;-42
2023/08/27 07:39:38;;;;;;;6.80;2.30;;;;;;;;;;6184221;23;20013;-42
2023/08/27 07:42:07;;;;;;;6.63;2.10;;;;;;;;;;6174051;23;20363;-42
2023/08/27 07:44:34;;;;;;;7.60;1.90;;;;;;;;;;6181133;23;20012;-42
2023/08/27 07:47:02;;;;;;;6.17;2.10;;;;;;;;;;6178953;23;20076;-42
2023/08/27 07:49:30;;;;;;;5.28;1.80;;;;;;;;;;6172364;23;20548;-42
2023/08/27 07:51:59;;;;;;;4.78;1.63;;;;;;;;;;6187300;23;20390;-44
2023/08/27 07:54:27;;;;;;;5.63;2.00;;;;;;;;;;6178395;23;20017;-42
2023/08/27 07:56:55;;;;;;;5.55;1.75;;;;;;;;;;6177474;23;20024;-43
2023/08/27 07:59:24;;;;;;;4.23;1.50;;;;;;;;;;6187721;23;20112;-42
2023/08/27 08:01:52;;;;;;;11.05;2.15;;;;;;;;;;6186255;23;20508;-45
2023/08/27 08:04:20;;;;;;;6.28;1.50;;;;;;;;;;6180444;23;20020;-43
2023/08/27 08:06:47;;;;;;;4.78;1.20;;;;;;;;;;6184350;23;20031;-42
2023/08/27 08:09:16;;;;;;;5.38;1.33;;;;;;;;;;6174428;23;20029;-43
2023/08/27 08:11:47;;;;;;;5.10;1.20;;;;;;;;;;6184140;23;20044;-43
2023/08/27 08:14:15;;;;;;;5.75;1.10;;;;;;;;;;6182660;23;20024;-42
2023/08/27 08:16:43;;;;;;;5.35;1.20;;;;;;;;;;6173256;23;20016;-43
2023/08/27 08:19:11;;;;;;;8.02;1.38;;;;;;;;;;6181801;23;20016;-43
2023/08/27 08:21:39;;;;;;;5.85;1.30;;;;;;;;;;6174734;23;20476;-42
2023/08/27 08:24:07;;;;;;;7.67;1.43;;;;;;;;;;6184391;23;20016;-42
2023/08/27 08:26:36;;;;;;;4.80;0.90;;;;;;;;;;6174316;23;20294;-43
2023/08/27 08:29:04;;;;;;;4.15;0.88;;;;;;;;;;6187341;23;20021;-42
2023/08/27 08:31:31;;;;;;;4.72;1.10;;;;;;;;;;6172277;23;20040;-45
2023/08/27 08:33:59;;;;;;;4.53;1.20;;;;;;;;;;6187705;23;20021;-43
2023/08/27 08:36:27;;;;;;;4.50;0.80;;;;;;;;;;6177647;23;20469;-42
2023/08/27 08:38:54;;;;;;;5.15;0.90;;;;;;;;;;6189400;23;20040;-43
2023/08/27 08:41:23;;;;;;;5.45;0.75;;;;;;;;;;6173672;23;20020;-43
2023/08/27 08:44:01;;;;;;;4.72;1.08;;;;;;;;;;6188635;23;20031;-42
2023/08/27 08:46:34;;;;;;;4.32;1.33;;;;;;;;;;6176448;23;20016;-42
2023/08/27 08:49:03;;;;;;;4.33;1.30;;;;;;;;;;6184621;23;20050;-42
2023/08/27 08:51:31;;;;;;;5.07;1.20;;;;;;;;;;6185537;23;20017;-43
2023/08/27 08:54:03;;;;;;;7.22;0.90;;;;;;;;;;6186533;23;20447;-42
2023/08/27 08:56:34;;;;;;;5.75;0.75;;;;;;;;;;6179442;23;20023;-43
2023/08/27 08:59:05;;;;;;;4.35;0.90;;;;;;;;;;6183413;23;20025;-42
2023/08/27 09:01:32;;;;;;;3.77;0.80;;;;;;;;;;6179091;23;20388;-42
2023/08/27 09:04:00;;;;;;;5.95;0.88;;;;;;;;;;6179334;23;20095;-43
2023/08/27 09:06:29;;;;;;;6.10;0.88;;;;;;;;;;6181223;23;20063;-43
2023/08/27 09:08:57;;;;;;;3.22;0.82;;;;;;;;;;6185710;23;20017;-43
2023/08/27 09:11:25;;;;;;;4.10;1.00;;;;;;;;;;6183390;23;20703;-44
2023/08/27 09:13:54;;;;;;;4.77;0.77;;;;;;;;;;6173352;23;20020;-45
2023/08/27 09:16:23;;;;;;;4.57;0.75;;;;;;;;;;6189927;23;20481;-42
2023/08/27 09:18:52;;;;;;;5.97;0.70;;;;;;;;;;6176581;23;20100;-42
2023/08/27 09:21:20;;;;;;;3.35;0.60;;;;;;;;;;6188113;23;20139;-44
2023/08/27 09:23:53;;;;;;;5.57;0.90;;;;;;;;;;6191357;23;20451;-44
2023/08/27 09:26:41;;;;;;;6.43;0.90;;;;;;;;;;6176213;23;20083;-44
2023/08/27 09:29:09;;;;;;;4.18;0.93;;;;;;;;;;6189830;23;20017;-43
2023/08/27 09:31:39;;;;;;;3.08;0.75;;;;;;;;;;6183051;23;20040;-43
2023/08/27 09:34:07;;;;;;;4.40;0.90;;;;;;;;;;6190119;23;20013;-46
2023/08/27 09:36:36;;;;;;;3.92;0.57;;;;;;;;;;6182931;23;20463;-42
2023/08/27 09:39:09;;;;;;;4.43;1.00;;;;;;;;;;6182954;23;20028;-43
2023/08/27 09:41:37;;;;;;;4.75;0.68;;;;;;;;;;6185623;23;20019;-42
2023/08/27 09:44:06;;;;;;;2.20;0.40;;;;;;;;;;6176156;23;20013;-44
2023/08/27 09:46:34;;;;;;;4.38;0.55;;;;;;;;;;6191777;23;20012;-43
2023/08/27 09:49:06;;;;;;;4.75;0.40;;;;;;;;;;6179958;23;20035;-43
2023/08/27 09:51:34;;;;;;;6.57;0.80;;;;;;;;;;6186273;23;20013;-42
2023/08/27 09:54:02;;;;;;;5.45;0.88;;;;;;;;;;6181927;23;20016;-42
2023/08/27 09:56:30;;;;;;;3.15;0.80;;;;;;;;;;6184576;23;20039;-44
2023/08/27 09:59:05;;;;;;;4.18;0.45;;;;;;;;;;6181380;23;20403;-45
2023/08/27 10:01:34;;;;;;;2.95;0.38;;;;;;;;;;6188395;23;20017;-42
2023/08/27 10:04:03;;;;;;;3.00;0.50;;;;;;;;;;6173669;23;20099;-44
2023/08/27 10:06:36;;;;;;;3.47;0.90;;;;;;;;;;6183356;23;20100;-42
2023/08/27 10:09:04;;;;;;;2.75;0.40;;;;;;;;;;6185614;23;20115;-42
2023/08/27 10:11:32;;;;;;;4.30;0.73;;;;;;;;;;6188655;23;20021;-43
2023/08/27 10:14:00;;;;;;;2.72;0.70;;;;;;;;;;6178574;23;20390;-43
2023/08/27 10:16:30;;;;;;;4.43;0.80;;;;;;;;;;6190754;23;20028;-43
2023/08/27 10:19:01;;;;;;;3.33;0.50;;;;;;;;;;6184583;23;20384;-42
2023/08/27 10:21:29;;;;;;;2.10;0.45;;;;;;;;;;6175030;23;20071;-42
2023/08/27 10:23:58;;;;;;;1.98;0.32;;;;;;;;;;6186846;23;20012;-43
2023/08/27 10:26:26;;;;;;;3.50;0.50;;;;;;;;;;6179483;23;20096;-42
2023/08/27 10:28:54;;;;;;;2.57;0.60;;;;;;;;;;6175479;23;20031;-42
2023/08/27 10:31:21;;;;;;;2.92;0.70;;;;;;;;;;6180346;23;20028;-42
2023/08/27 10:33:50;;;;;;;2.70;0.50;;;;;;;;;;6186315;23;20023;-43
2023/08/27 10:36:20;;;;;;;3.65;0.70;;;;;;;;;;6177661;23;20027;-42
2023/08/27 10:38:51;;;;;;;3.38;0.82;;;;;;;;;;6189592;23;20016;-42
2023/08/27 10:41:23;;;;;;;2.73;0.80;;;;;;;;;;6175271;23;20023;-42
2023/08/27 10:43:50;;;;;;;3.95;0.73;;;;;;;;;;6186392;23;20395;-47
2023/08/27 10:46:20;;;;;;;4.05;0.68;;;;;;;;;;6171948;23;20021;-43
2023/08/27 10:48:51;;;;;;;3.55;0.88;;;;;;;;;;6185807;23;20044;-42
2023/08/27 10:51:21;;;;;;;2.30;0.50;;;;;;;;;;6178626;23;20042;-43
2023/08/27 10:53:55;;;;;;;4.00;0.80;;;;;;;;;;6183045;23;20020;-43
2023/08/27 10:56:35;;;;;;;2.60;0.50;;;;;;;;;;6188260;23;20024;-43
2023/08/27 10:59:04;;;;;;;3.10;0.52;;;;;;;;;;6178898;23;20020;-42
2023/08/27 11:01:35;;;;;;;3.47;0.80;;;;;;;;;;6188309;23;20440;-43
2023/08/27 11:04:04;;;;;;;2.22;0.40;;;;;;;;;;6182386;23;20599;-45
2023/08/27 11:06:33;;;;;;;2.93;0.50;;;;;;;;;;6183190;23;20055;-45
2023/08/27 11:09:00;;;;;;;4.40;0.50;;;;;;;;;;6189067;23;20623;-45
2023/08/27 11:11:41;;;;;;;3.03;0.65;;;;;;;;;;6190366;23;20093;-42
2023/08/27 11:14:19;;;;;;;3.33;0.80;;;;;;;;;;6186907;23;20016;-45
2023/08/27 11:16:48;;;;;;;2.45;0.50;;;;;;;;;;6178545;23;20449;-42
2023/08/27 11:19:25;;;;;;;2.00;0.60;;;;;;;;;;6186948;23;20117;-43
2023/08/27 11:22:10;;;;;;;2.30;0.50;;;;;;;;;;6186875;23;20013;-43
2023/08/27 11:24:42;;;;;;;1.40;0.20;;;;;;;;;;6175632;23;20115;-42
2023/08/27 11:27:12;;;;;;;3.40;0.63;;;;;;;;;;6182963;23;20044;-43
2023/08/27 11:29:41;;;;;;;2.20;0.40;;;;;;;;;;6177896;23;20379;-42
2023/08/27 11:32:08;;;;;;;1.87;0.40;;;;;;;;;;6187933;23;20311;-42
2023/08/27 11:34:38;;;;;;;2.45;0.30;;;;;;;;;;6179762;23;21170;-44
2023/08/27 11:37:05;;;;;;;3.97;0.40;;;;;;;;;;6190449;23;20016;-43
2023/08/27 11:39:35;;;;;;;2.65;0.50;;;;;;;;;;6178836;23;20076;-44
2023/08/27 11:42:03;;;;;;;2.58;0.60;;;;;;;;;;6189384;23;20040;-42
2023/08/27 11:44:32;;;;;;;2.33;0.43;;;;;;;;;;6164962;23;20013;-43
2023/08/27 11:47:03;;;;;;;3.38;0.50;;;;;;;;;;6179358;23;20028;-43
2023/08/27 11:49:32;;;;;;;4.15;0.50;;;;;;;;;;6177170;23;20021;-43
2023/08/27 11:52:00;;;;;;;4.30;0.50;;;;;;;;;;6187333;23;20023;-42
2023/08/27 11:54:30;;;;;;;1.92;0.38;;;;;;;;;;6171309;23;20096;-42
2023/08/27 11:56:58;;;;;;;1.97;0.30;;;;;;;;;;6186082;23;20023;-42
2023/08/27 11:59:28;;;;;;;2.05;0.35;;;;;;;;;;6186337;23;20103;-43
2023/08/27 12:01:58;;;;;;;5.38;0.50;;;;;;;;;;6177645;23;20096;-42
2023/08/27 12:04:26;;;;;;;4.10;0.40;;;;;;;;;;6190422;23;20436;-42
2023/08/27 12:06:56;;;;;;;3.38;0.90;;;;;;;;;;6181870;23;20013;-41
2023/08/27 12:09:26;;;;;;;3.87;0.50;;;;;;;;;;6177392;23;20032;-42
2023/08/27 12:11:53;;;;;;;3.95;0.50;;;;;;;;;;6182528;23;20012;-41
2023/08/27 12:14:22;;;;;;;2.78;0.60;;;;;;;;;;6188062;23;20022;-44
2023/08/27 12:16:49;;;;;;;2.47;0.55;;;;;;;;;;6176500;23;20013;-43
2023/08/27 12:19:19;;;;;;;3.22;0.35;;;;;;;;;;6186293;23;20020;-41
2023/08/27 12:21:47;;;;;;;2.47;0.50;;;;;;;;;;6176211;23;20256;-43
2023/08/27 12:24:28;;;;;;;3.38;0.52;;;;;;;;;;6189048;23;20020;-44
2023/08/27 12:26:56;;;;;;;2.88;0.60;;;;;;;;;;6178191;23;20062;-43
2023/08/27 12:29:29;;;;;;;3.15;0.80;;;;;;;;;;6188074;23;20017;-42
2023/08/27 12:31:58;;;;;;;3.42;0.85;;;;;;;;;;6185862;23;20017;-42
2023/08/27 12:34:37;;;;;;;4.87;0.70;;;;;;;;;;6178842;23;20016;-41
2023/08/27 12:37:05;;;;;;;4.78;0.80;;;;;;;;;;6187283;23;20083;-42
2023/08/27 12:39:33;;;;;;;2.97;0.50;;;;;;;;;;6173574;23;20023;-43
2023/08/27 12:42:01;;;;;;;3.10;0.70;;;;;;;;;;6188427;23;20017;-46
2023/08/27 12:44:29;;;;;;;3.95;0.60;;;;;;;;;;6179075;23;20012;-43
2023/08/27 12:46:57;;;;;;;4.27;0.93;;;;;;;;;;6185817;23;20043;-43
2023/08/27 12:49:25;;;;;;;4.05;1.00;;;;;;;;;;6175615;23;20017;-43
2023/08/27 12:51:54;;;;;;;3.28;0.70;;;;;;;;;;6192511;23;20459;-41
2023/08/27 12:54:22;;;;;;;4.53;0.95;;;;;;;;;;6174447;23;20041;-42
2023/08/27 12:56:50;;;;;;;2.72;0.50;;;;;;;;;;6184818;23;20470;-42
2023/08/27 12:59:19;;;;;;;3.47;0.40;;;;;;;;;;6178040;23;20104;-42
2023/08/27 13:01:49;;;;;;;2.42;0.50;;;;;;;;;;6185956;23;20653;-42
2023/08/27 13:04:19;;;;;;;4.63;0.80;;;;;;;;;;6181496;23;20100;-41
2023/08/27 13:06:47;;;;;;;5.18;1.15;;;;;;;;;;6182144;23;20074;-43
2023/08/27 13:09:17;;;;;;;3.33;0.63;;;;;;;;;;6183341;23;20363;-43
2023/08/27 13:11:47;;;;;;;3.63;0.80;;;;;;;;;;6189577;23;20035;-42
2023/08/27 13:14:15;;;;;;;3.25;0.52;;;;;;;;;;6190193;23;20028;-42
2023/08/27 13:16:45;;;;;;;2.90;0.70;;;;;;;;;;6178750;23;20502;-42
2023/08/27 13:19:17;;;;;;;4.20;0.50;;;;;;;;;;6186004;23;20012;-42
2023/08/27 13:21:46;;;;;;;3.40;0.68;;;;;;;;;;6179468;23;20024;-43
2023/08/27 13:24:16;;;;;;;3.63;0.80;;;;;;;;;;6188485;23;20016;-42
2023/08/27 13:26:46;;;;;;;3.78;0.70;;;;;;;;;;6165416;23;20523;-42
2023/08/27 13:29:13;;;;;;;2.95;0.80;;;;;;;;;;6189123;23;20032;-43
2023/08/27 13:31:41;;;;;;;2.55;0.55;;;;;;;;;;6170005;23;20090;-46
2023/08/27 13:34:09;;;;;;;3.00;0.57;;;;;;;;;;6191838;23;20016;-43
2023/08/27 13:36:36;;;;;;;4.37;0.43;;;;;;;;;;6177542;23;20254;-44
2023/08/27 13:39:04;;;;;;;4.07;0.60;;;;;;;;;;6173193;23;20070;-42
2023/08/27 13:41:36;;;;;;;3.53;0.75;;;;;;;;;;6182208;23;20020;-41
2023/08/27 13:44:08;;;;;;;3.13;0.80;;;;;;;;;;6185716;23;20024;-43
2023/08/27 13:46:36;;;;;;;3.58;0.70;;;;;;;;;;6183758;23;20016;-43
2023/08/27 13:49:03;;;;;;;3.87;0.93;;;;;;;;;;6180864;23;20017;-41
2023/08/27 13:51:31;;;;;;;3.40;0.88;;;;;;;;;;6181293;23;20032;-41
2023/08/27 13:53:58;;;;;;;2.67;0.50;;;;;;;;;;6187878;23;20024;-41
2023/08/27 13:56:26;;;;;;;5.45;0.90;;;;;;;;;;6176374;23;20075;-43
2023/08/27 13:58:55;;;;;;;3.20;0.50;;;;;;;;;;6176966;23;20031;-43
2023/08/27 14:01:24;;;;;;;4.03;0.80;;;;;;;;;;6180616;23;20020;-42
2023/08/27 14:03:52;;;;;;;3.15;0.60;;;;;;;;;;6169964;23;20551;-41
2023/08/27 14:06:19;;;;;;;6.30;1.38;;;;;;;;;;6180011;23;20016;-42
2023/08/27 14:08:47;;;;;;;3.03;0.50;;;;;;;;;;6184679;23;20044;-42
2023/08/27 14:11:15;;;;;;;5.00;0.80;;;;;;;;;;6182237;23;20027;-44
2023/08/27 14:13:44;;;;;;;4.73;0.73;;;;;;;;;;6177910;23;20012;-46
2023/08/27 14:16:14;;;;;;;3.90;1.23;;;;;;;;;;6185929;23;20017;-44
2023/08/27 14:18:42;;;;;;;3.30;0.80;;;;;;;;;;6168043;23;20515;-42
2023/08/27 14:21:09;;;;;;;5.47;0.60;;;;;;;;;;6187217;23;20027;-42
2023/08/27 14:23:37;;;;;;;4.28;0.90;;;;;;;;;;6173143;23;20024;-42
2023/08/27 14:26:05;;;;;;;3.53;0.77;;;;;;;;;;6184953;23;20040;-42
2023/08/27 14:28:33;;;;;;;5.95;0.73;;;;;;;;;;6169223;23;20444;-42
2023/08/27 14:31:01;;;;;;;5.25;1.02;;;;;;;;;;6184808;23;20023;-42
2023/08/27 14:33:31;;;;;;;3.38;0.63;;;;;;;;;;6177582;23;20027;-43
2023/08/27 14:35:58;;;;;;;5.20;1.10;;;;;;;;;;6179008;23;20430;-42
2023/08/27 14:38:26;;;;;;;3.37;0.60;;;;;;;;;;6186397;23;20020;-44
2023/08/27 14:40:54;;;;;;;4.38;0.80;;;;;;;;;;6177004;23;20020;-43
2023/08/27 14:43:22;;;;;;;4.35;0.77;;;;;;;;;;6187448;23;20025;-44
2023/08/27 14:45:49;;;;;;;3.42;0.82;;;;;;;;;;6174377;23;20357;-41
2023/08/27 14:48:17;;;;;;;3.70;0.90;;;;;;;;;;6187934;23;20451;-42
2023/08/27 14:50:46;;;;;;;3.27;0.90;;;;;;;;;;6180328;23;20491;-43
2023/08/27 14:53:14;;;;;;;3.53;0.90;;;;;;;;;;6180578;23;20712;-41